createdAt,value
2022-10-05T00:00:48.851Z,10.83
2022-10-05T00:03:15.675Z,10.80
2022-10-05T00:05:45.345Z,10.89
2022-10-05T00:08:17.774Z,11.09
2022-10-05T00:10:46.071Z,11.07
2022-10-05T00:13:21.606Z,10.95
2022-10-05T00:15:50.042Z,11.06
2022-10-05T00:18:19.355Z,11.04
2022-10-05T00:20:47.770Z,10.93
2022-10-05T00:23:19.863Z,11.07
2022-10-05T00:25:46.913Z,11.12
2022-10-05T00:28:29.554Z,11.14
2022-10-05T00:30:58.087Z,11.21
2022-10-05T00:33:25.847Z,11.30
2022-10-05T00:35:52.836Z,11.25
2022-10-05T00:38:19.593Z,11.24
2022-10-05T00:40:59.115Z,11.21
2022-10-05T00:43:40.862Z,11.19
2022-10-05T00:46:30.744Z,11.13
2022-10-05T00:49:42.488Z,11.07
2022-10-05T00:52:22.609Z,11.10
2022-10-05T00:55:12.501Z,11.08
2022-10-05T00:58:08.506Z,11.05
2022-10-05T01:00:46.990Z,10.96
2022-10-05T01:03:43.055Z,10.92
2022-10-05T01:06:39.518Z,10.98
2022-10-05T01:09:09.185Z,11.02
2022-10-05T01:11:43.838Z,11.18
2022-10-05T01:14:43.855Z,11.23
2022-10-05T01:17:24.380Z,11.27
2022-10-05T01:20:06.484Z,11.33
2022-10-05T01:22:33.337Z,11.31
2022-10-05T01:25:51.283Z,11.36
2022-10-05T01:28:28.264Z,11.36
2022-10-05T01:31:09.696Z,11.39
2022-10-05T01:34:11.574Z,11.22
2022-10-05T01:36:52.577Z,11.19
2022-10-05T01:39:46.974Z,11.23
2022-10-05T01:42:22.085Z,11.22
2022-10-05T01:44:53.589Z,11.22
2022-10-05T01:47:44.066Z,11.29
2022-10-05T01:50:23.705Z,11.11
2022-10-05T01:52:53.458Z,10.98
2022-10-05T01:55:26.088Z,10.99
2022-10-05T01:58:23.529Z,10.91
2022-10-05T02:01:03.426Z,10.89
2022-10-05T02:03:49.705Z,10.87
2022-10-05T02:06:41.944Z,10.81
2022-10-05T02:09:17.565Z,10.81
2022-10-05T02:11:50.286Z,10.75
2022-10-05T02:14:23.870Z,10.77
2022-10-05T02:16:53.922Z,10.78
2022-10-05T02:19:35.560Z,10.83
2022-10-05T02:22:08.678Z,10.77
2022-10-05T02:24:40.750Z,10.62
2022-10-05T02:27:10.947Z,10.58
2022-10-05T02:29:42.931Z,10.52
2022-10-05T02:32:27.408Z,10.57
2022-10-05T02:35:01.720Z,10.48
2022-10-05T02:37:40.716Z,10.44
2022-10-05T02:40:39.804Z,10.44
2022-10-05T02:43:32.717Z,10.33
2022-10-05T02:46:02.565Z,10.17
2022-10-05T02:48:56.808Z,10.24
2022-10-05T02:51:28.613Z,10.16
2022-10-05T02:53:58.132Z,10.13
2022-10-05T02:56:49.545Z,10.10
2022-10-05T02:59:34.438Z,10.06
2022-10-05T03:02:07.287Z,10.05
2022-10-05T03:04:46.840Z,10.09
2022-10-05T03:07:15.847Z,10.16
2022-10-05T03:09:51.032Z,10.18
2022-10-05T03:12:49.303Z,10.16
2022-10-05T03:15:18.802Z,10.18
2022-10-05T03:18:03.821Z,10.20
2022-10-05T03:20:55.178Z,10.23
2022-10-05T03:23:53.244Z,10.28
2022-10-05T03:26:48.882Z,10.43
2022-10-05T03:29:23.508Z,10.48
2022-10-05T03:32:32.528Z,10.54
2022-10-05T03:35:27.928Z,10.51
2022-10-05T03:38:20.863Z,10.65
2022-10-05T03:40:53.363Z,10.73
2022-10-05T03:43:25.884Z,10.72
2022-10-05T03:46:19.635Z,10.72
2022-10-05T03:49:04.598Z,10.68
2022-10-05T03:51:32.562Z,10.67
2022-10-05T03:54:35.298Z,10.85
2022-10-05T03:57:07.143Z,10.94
2022-10-05T04:00:12.500Z,10.86
2022-10-05T04:02:50.303Z,10.68
2022-10-05T04:05:25.098Z,10.66
2022-10-05T04:08:10.423Z,10.76
2022-10-05T04:10:46.318Z,11.02
2022-10-05T04:13:25.819Z,11.00
2022-10-05T04:16:14.585Z,11.05
2022-10-05T04:18:44.301Z,11.08
2022-10-05T04:21:23.770Z,11.04
2022-10-05T04:24:01.848Z,11.21
2022-10-05T04:26:45.848Z,11.05
2022-10-05T04:29:45.109Z,10.91
2022-10-05T04:32:37.257Z,10.91
2022-10-05T04:35:36.969Z,11.20
2022-10-05T04:38:26.560Z,11.35
2022-10-05T04:41:11.701Z,11.48
2022-10-05T04:44:01.402Z,11.64
2022-10-05T04:46:28.293Z,11.60
2022-10-05T04:49:07.113Z,11.63
2022-10-05T04:51:52.614Z,11.68
2022-10-05T04:54:40.051Z,11.59
2022-10-05T04:57:34.305Z,11.74
2022-10-05T05:00:26.292Z,11.64
2022-10-05T05:02:53.033Z,11.65
2022-10-05T05:06:15.782Z,11.71
2022-10-05T05:09:11.731Z,11.54
2022-10-05T05:12:21.772Z,11.36
2022-10-05T05:14:57.440Z,11.24
2022-10-05T05:17:36.289Z,11.07
2022-10-05T05:20:23.971Z,11.13
2022-10-05T05:22:59.147Z,11.09
2022-10-05T05:25:43.313Z,11.26
2022-10-05T05:28:30.605Z,11.49
2022-10-05T05:31:19.786Z,11.52
2022-10-05T05:34:28.281Z,11.65
2022-10-05T05:37:05.204Z,11.95
2022-10-05T05:39:49.909Z,12.05
2022-10-05T05:42:37.524Z,11.88
2022-10-05T05:45:23.797Z,12.11
2022-10-05T05:47:57.238Z,12.27
2022-10-05T05:50:55.612Z,12.46
2022-10-05T05:53:44.646Z,12.60
2022-10-05T05:56:12.816Z,12.65
2022-10-05T05:58:42.188Z,12.40
2022-10-05T06:01:44.183Z,12.42
2022-10-05T06:04:17.536Z,12.40
2022-10-05T06:06:50.258Z,12.33
2022-10-05T06:09:30.965Z,12.44
2022-10-05T06:12:19.242Z,12.49
2022-10-05T06:15:12.474Z,12.47
2022-10-05T06:17:52.997Z,12.44
2022-10-05T06:20:30.483Z,12.56
2022-10-05T06:23:03.460Z,12.52
2022-10-05T06:25:45.085Z,12.67
2022-10-05T06:28:14.227Z,12.57
2022-10-05T06:30:48.953Z,12.57
2022-10-05T06:33:47.899Z,12.61
2022-10-05T06:36:48.830Z,12.68
2022-10-05T06:39:15.973Z,12.88
2022-10-05T06:41:58.989Z,13.12
2022-10-05T06:44:49.259Z,13.35
2022-10-05T06:47:46.535Z,13.72
2022-10-05T06:50:13.274Z,14.02
2022-10-05T06:52:49.251Z,13.69
2022-10-05T06:55:21.740Z,13.72
2022-10-05T06:58:19.417Z,13.77
2022-10-05T07:01:03.210Z,13.67
2022-10-05T07:03:38.671Z,13.67
2022-10-05T07:06:14.329Z,13.72
2022-10-05T07:08:47.025Z,13.68
2022-10-05T07:11:40.396Z,13.57
2022-10-05T07:14:07.090Z,13.75
2022-10-05T07:16:42.869Z,13.70
2022-10-05T07:19:27.848Z,13.90
2022-10-05T07:22:30.500Z,14.19
2022-10-05T07:25:19.187Z,14.51
2022-10-05T07:28:00.644Z,14.54
2022-10-05T07:30:28.531Z,14.32
2022-10-05T07:33:44.531Z,14.37
2022-10-05T07:36:19.990Z,14.68
2022-10-05T07:39:01.629Z,14.81
2022-10-05T07:41:41.388Z,14.53
2022-10-05T07:44:26.751Z,14.57
2022-10-05T07:47:07.160Z,14.45
2022-10-05T07:49:51.490Z,14.41
2022-10-05T07:52:46.978Z,14.35
2022-10-05T07:55:19.572Z,14.65
2022-10-05T07:57:56.341Z,14.60
2022-10-05T08:00:26.610Z,14.92
2022-10-05T08:03:03.933Z,15.13
2022-10-05T08:05:37.340Z,15.29
2022-10-05T08:08:14.274Z,15.23
2022-10-05T08:10:54.873Z,15.41
2022-10-05T08:13:45.439Z,15.66
2022-10-05T08:16:13.054Z,15.45
2022-10-05T08:18:42.715Z,15.25
2022-10-05T08:21:10.114Z,15.18
2022-10-05T08:23:56.829Z,15.33
2022-10-05T08:26:45.501Z,15.26
2022-10-05T08:29:40.877Z,15.24
2022-10-05T08:32:24.996Z,15.55
2022-10-05T08:34:58.519Z,15.55
2022-10-05T08:37:29.814Z,15.43
2022-10-05T08:40:33.872Z,15.63
2022-10-05T08:43:06.483Z,15.77
2022-10-05T08:45:51.740Z,15.61
2022-10-05T08:48:52.280Z,15.71
2022-10-05T08:51:33.466Z,15.71
2022-10-05T08:54:03.148Z,15.88
2022-10-05T08:56:33.502Z,16.04
2022-10-05T08:59:26.349Z,16.45
2022-10-05T09:02:15.080Z,16.81
2022-10-05T09:04:47.934Z,17.01
2022-10-05T09:07:28.821Z,16.99
2022-10-05T09:10:37.762Z,16.89
2022-10-05T09:13:17.534Z,17.18
2022-10-05T09:16:04.701Z,17.56
2022-10-05T09:18:50.157Z,16.62
2022-10-05T09:21:39.431Z,16.73
2022-10-05T09:24:15.018Z,16.61
2022-10-05T09:26:59.243Z,16.91
2022-10-05T09:30:00.141Z,17.48
2022-10-05T09:32:52.777Z,17.95
2022-10-05T09:35:31.475Z,17.74
2022-10-05T09:38:07.241Z,17.82
2022-10-05T09:41:07.318Z,17.73
2022-10-05T09:43:55.349Z,17.75
2022-10-05T09:46:48.358Z,17.55
2022-10-05T09:49:49.164Z,17.46
2022-10-05T09:52:25.150Z,17.41
2022-10-05T09:55:13.071Z,17.68
2022-10-05T09:57:53.145Z,17.97
2022-10-05T10:00:38.465Z,18.39
2022-10-05T10:03:25.790Z,18.68
2022-10-05T10:06:25.157Z,18.08
2022-10-05T10:09:00.906Z,17.99
2022-10-05T10:11:44.529Z,17.83
2022-10-05T10:14:23.968Z,17.87
2022-10-05T10:16:58.506Z,18.25
2022-10-05T10:19:27.944Z,18.18
2022-10-05T10:22:06.437Z,18.04
2022-10-05T10:24:58.460Z,18.03
2022-10-05T10:28:08.524Z,17.96
2022-10-05T10:31:13.134Z,17.92
2022-10-05T10:33:58.189Z,17.64
2022-10-05T10:37:13.133Z,17.48
2022-10-05T10:40:04.005Z,17.62
2022-10-05T10:42:58.272Z,17.31
2022-10-05T10:45:47.884Z,17.38
2022-10-05T10:48:30.081Z,17.61
2022-10-05T10:51:08.771Z,17.95
2022-10-05T10:54:00.263Z,18.27
2022-10-05T10:57:02.933Z,18.20
2022-10-05T10:59:47.745Z,18.14
2022-10-05T11:02:32.988Z,18.43
2022-10-05T11:05:00.181Z,18.76
2022-10-05T11:07:35.941Z,18.55
2022-10-05T11:10:23.002Z,18.45
2022-10-05T11:13:35.521Z,18.79
2022-10-05T11:16:21.169Z,18.93
2022-10-05T11:19:13.725Z,18.31
2022-10-05T11:22:07.123Z,17.90
2022-10-05T11:24:43.990Z,17.92
2022-10-05T11:27:48.240Z,18.23
2022-10-05T11:30:30.243Z,18.48
2022-10-05T11:32:56.949Z,18.22
2022-10-05T11:35:49.757Z,18.35
2022-10-05T11:38:46.787Z,18.63
2022-10-05T11:41:34.370Z,18.94
2022-10-05T11:44:27.294Z,18.93
2022-10-05T11:47:17.991Z,18.97
2022-10-05T11:50:14.312Z,18.93
2022-10-05T11:52:48.245Z,19.16
2022-10-05T11:55:17.928Z,19.31
2022-10-05T11:57:56.068Z,19.31
2022-10-05T12:00:31.626Z,19.31
2022-10-05T12:03:22.468Z,18.92
2022-10-05T12:06:04.406Z,18.74
2022-10-05T12:08:54.110Z,18.37
2022-10-05T12:11:29.812Z,18.24
2022-10-05T12:14:33.245Z,18.06
2022-10-05T12:17:15.591Z,17.98
2022-10-05T12:19:48.241Z,17.79
2022-10-05T12:22:47.001Z,17.53
2022-10-05T12:25:25.510Z,17.53
2022-10-05T12:27:56.806Z,17.62
2022-10-05T12:30:52.404Z,17.79
2022-10-05T12:33:27.660Z,17.68
2022-10-05T12:36:01.547Z,17.58
2022-10-05T12:38:53.052Z,17.65
2022-10-05T12:41:25.538Z,17.54
2022-10-05T12:44:15.621Z,17.73
2022-10-05T12:46:59.574Z,17.76
2022-10-05T12:49:56.213Z,17.79
2022-10-05T12:52:32.996Z,17.87
2022-10-05T12:55:02.640Z,18.14
2022-10-05T12:57:41.332Z,18.27
2022-10-05T13:00:17.848Z,18.40
2022-10-05T13:03:02.057Z,18.37
2022-10-05T13:05:52.770Z,18.10
2022-10-05T13:08:39.775Z,18.06
2022-10-05T13:11:17.659Z,18.12
2022-10-05T13:14:18.521Z,18.08
2022-10-05T13:17:00.178Z,17.81
2022-10-05T13:19:41.514Z,17.79
2022-10-05T13:22:56.138Z,17.54
2022-10-05T13:25:31.360Z,17.56
2022-10-05T13:28:21.551Z,17.56
2022-10-05T13:31:21.953Z,17.58
2022-10-05T13:34:07.189Z,17.47
2022-10-05T13:36:52.019Z,17.41
2022-10-05T13:39:39.872Z,17.34
2022-10-05T13:42:17.989Z,17.33
2022-10-05T13:44:55.708Z,17.38
2022-10-05T13:47:42.199Z,17.35
2022-10-05T13:50:22.653Z,17.31
2022-10-05T13:53:22.266Z,17.31
2022-10-05T13:56:07.656Z,17.25
2022-10-05T13:58:51.601Z,17.23
2022-10-05T14:01:53.111Z,17.25
2022-10-05T14:04:44.535Z,17.27
2022-10-05T14:07:30.537Z,17.17
2022-10-05T14:09:58.960Z,17.10
2022-10-05T14:12:27.353Z,17.12
2022-10-05T14:14:56.904Z,17.13
2022-10-05T14:17:42.173Z,17.15
2022-10-05T14:20:21.447Z,17.15
2022-10-05T14:22:58.077Z,17.09
2022-10-05T14:25:25.368Z,17.12
2022-10-05T14:28:11.887Z,17.10
2022-10-05T14:30:38.905Z,17.03
2022-10-05T14:33:05.908Z,16.82
2022-10-05T14:35:52.363Z,16.62
2022-10-05T14:38:57.655Z,16.53
2022-10-05T14:41:27.834Z,16.49
2022-10-05T14:44:12.904Z,16.38
2022-10-05T14:46:53.156Z,16.37
2022-10-05T14:49:36.196Z,16.22
2022-10-05T15:32:14.250Z,15.30
2022-10-05T15:35:23.574Z,15.20
2022-10-05T15:38:04.864Z,15.11
2022-10-05T15:40:51.865Z,15.11
2022-10-05T15:43:23.020Z,15.02
2022-10-05T15:45:54.030Z,14.93
2022-10-05T15:48:43.804Z,14.86
2022-10-05T15:51:22.664Z,14.80
2022-10-05T15:53:55.237Z,14.74
2022-10-05T15:56:38.587Z,14.64
2022-10-05T15:59:07.983Z,14.59
2022-10-05T16:01:34.787Z,14.63
2022-10-05T16:04:12.381Z,14.62
2022-10-05T16:06:53.947Z,14.37
2022-10-05T16:09:38.794Z,14.33
2022-10-05T16:12:25.747Z,14.18
2022-10-05T16:15:14.619Z,14.07
2022-10-05T16:17:56.643Z,14.06
2022-10-05T16:20:25.540Z,13.98
2022-10-05T16:23:12.167Z,13.84
2022-10-05T16:26:03.641Z,13.88
2022-10-05T16:29:05.424Z,13.84
2022-10-05T16:31:34.984Z,13.78
2022-10-05T16:34:34.480Z,13.82
2022-10-05T16:37:11.527Z,13.76
2022-10-05T16:39:54.258Z,13.70
2022-10-05T16:42:42.420Z,13.64
2022-10-05T16:45:18.018Z,13.62
2022-10-05T16:48:31.197Z,13.57
2022-10-05T16:51:21.486Z,13.45
2022-10-05T16:54:03.447Z,13.40
2022-10-05T16:56:41.849Z,13.40
2022-10-05T16:59:47.423Z,13.42
2022-10-05T17:02:28.316Z,13.48
2022-10-05T17:04:58.313Z,13.45
2022-10-05T17:07:56.295Z,13.45
2022-10-05T17:10:35.409Z,13.46
2022-10-05T17:13:08.073Z,13.46
2022-10-05T17:15:57.959Z,13.38
2022-10-05T17:18:50.526Z,13.31
2022-10-05T17:21:30.679Z,13.14
2022-10-05T17:24:17.631Z,13.13
2022-10-05T17:26:57.620Z,13.14
2022-10-05T17:29:53.659Z,13.08
2022-10-05T17:32:23.144Z,13.02
2022-10-05T17:35:18.155Z,12.98
2022-10-05T17:38:12.712Z,12.93
2022-10-05T17:40:40.922Z,12.87
2022-10-05T17:43:25.385Z,12.96
2022-10-05T17:46:12.174Z,13.00
2022-10-05T17:48:54.200Z,12.86
2022-10-05T17:51:29.919Z,12.82
2022-10-05T17:53:56.794Z,12.78
2022-10-05T17:56:23.745Z,12.82
2022-10-05T17:58:50.506Z,12.75
2022-10-05T18:01:39.827Z,12.74
2022-10-05T18:04:15.501Z,12.69
2022-10-05T18:06:59.452Z,12.66
2022-10-05T18:09:26.163Z,12.58
2022-10-05T18:11:55.850Z,12.59
2022-10-05T18:14:25.884Z,12.52
2022-10-05T18:17:13.340Z,12.59
2022-10-05T18:19:40.305Z,12.56
2022-10-05T18:22:30.352Z,12.59
2022-10-05T18:25:03.351Z,12.61
2022-10-05T18:27:53.944Z,12.59
2022-10-05T18:30:25.632Z,12.62
2022-10-05T18:33:17.048Z,12.72
2022-10-05T18:35:53.069Z,12.79
2022-10-05T18:38:47.622Z,12.71
2022-10-05T18:41:55.156Z,12.62
2022-10-05T18:44:34.261Z,12.63
2022-10-05T18:47:10.027Z,12.69
2022-10-05T18:49:59.962Z,12.72
2022-10-05T18:53:00.612Z,12.62
2022-10-05T18:55:35.953Z,12.57
2022-10-05T18:58:26.676Z,12.58
2022-10-05T19:01:12.503Z,12.63
2022-10-05T19:04:11.908Z,12.67
2022-10-05T19:07:01.620Z,12.59
2022-10-05T19:09:43.154Z,12.55
2022-10-05T19:12:28.721Z,12.66
2022-10-05T19:15:20.438Z,12.71
2022-10-05T19:17:47.163Z,12.64
2022-10-05T19:20:30.463Z,12.60
2022-10-05T19:23:06.089Z,12.75
2022-10-05T19:25:37.555Z,12.79
2022-10-05T19:28:31.012Z,12.72
2022-10-05T19:31:15.570Z,12.74
2022-10-05T19:34:07.070Z,12.68
2022-10-05T19:36:41.514Z,12.68
2022-10-05T19:39:32.906Z,12.77
2022-10-05T19:42:16.353Z,12.76
2022-10-05T19:44:45.992Z,12.72
2022-10-05T19:47:26.134Z,12.54
2022-10-05T19:49:52.790Z,12.49
2022-10-05T19:52:28.907Z,12.47
2022-10-05T19:55:13.486Z,12.51
2022-10-05T19:57:52.197Z,12.53
2022-10-05T20:00:31.722Z,12.47
2022-10-05T20:03:15.311Z,12.46
2022-10-05T20:05:42.106Z,12.42
2022-10-05T20:08:18.181Z,12.32
2022-10-05T20:11:03.257Z,12.32
2022-10-05T20:13:30.556Z,12.32
2022-10-05T20:16:12.615Z,12.30
2022-10-05T20:18:45.162Z,12.28
2022-10-05T20:21:47.463Z,12.38
2022-10-05T20:24:24.653Z,12.30
2022-10-05T20:26:59.765Z,12.31
2022-10-05T20:29:26.722Z,12.27
2022-10-05T20:31:53.990Z,12.36
2022-10-05T20:34:21.273Z,12.33
2022-10-05T20:36:49.721Z,12.36
2022-10-05T20:39:17.789Z,12.52
2022-10-05T20:41:47.961Z,12.62
2022-10-05T20:44:16.155Z,12.67
2022-10-05T20:46:42.990Z,12.64
2022-10-05T20:49:10.275Z,12.54
2022-10-05T20:51:38.890Z,12.49
2022-10-05T20:54:07.146Z,12.43
2022-10-05T20:56:34.319Z,12.39
2022-10-05T20:59:01.216Z,12.36
2022-10-05T21:01:28.119Z,12.40
2022-10-05T21:03:54.983Z,12.40
2022-10-05T21:06:22.112Z,12.37
2022-10-05T21:08:49.245Z,12.32
2022-10-05T21:11:15.968Z,12.31
2022-10-05T21:13:46.342Z,12.29
2022-10-05T21:16:17.358Z,12.29
2022-10-05T21:18:49.046Z,12.23
2022-10-05T21:21:19.311Z,12.24
2022-10-05T21:23:47.608Z,12.25
2022-10-05T21:26:16.539Z,12.25
2022-10-05T21:28:43.271Z,12.24
2022-10-05T21:31:10.640Z,12.16
2022-10-05T21:33:38.501Z,12.10
2022-10-05T21:36:05.471Z,12.00
2022-10-05T21:38:32.471Z,12.01
2022-10-05T21:40:59.391Z,12.03
2022-10-05T21:43:26.441Z,12.01
2022-10-05T21:45:55.540Z,11.98
2022-10-05T21:48:22.704Z,11.93
2022-10-05T21:50:49.531Z,11.89
2022-10-05T21:53:18.598Z,11.87
2022-10-05T21:55:49.070Z,11.90
2022-10-05T21:58:17.068Z,11.85
2022-10-05T22:00:44.889Z,11.82
2022-10-05T22:03:11.669Z,11.71
2022-10-05T22:05:38.549Z,11.61
2022-10-05T22:08:05.813Z,11.64
2022-10-05T22:10:33.479Z,11.57
2022-10-05T22:13:01.910Z,11.53
2022-10-05T22:15:32.192Z,11.55
2022-10-05T22:17:59.543Z,11.54
2022-10-05T22:20:27.238Z,11.58
2022-10-05T22:22:54.252Z,11.60
2022-10-05T22:25:21.846Z,11.53
2022-10-05T22:27:49.726Z,11.60
2022-10-05T22:30:18.078Z,11.56
2022-10-05T22:32:44.860Z,11.51
2022-10-05T22:35:12.022Z,11.49
2022-10-05T22:37:39.000Z,11.44
2022-10-05T22:40:07.697Z,11.43
2022-10-05T22:42:34.846Z,11.36
2022-10-05T22:45:01.733Z,11.37
2022-10-05T22:47:28.644Z,11.32
2022-10-05T22:49:55.454Z,11.33
2022-10-05T22:52:22.304Z,11.44
2022-10-05T22:54:49.135Z,11.42
2022-10-05T22:57:15.891Z,11.30
2022-10-05T22:59:42.723Z,11.33
2022-10-05T23:02:09.957Z,11.28
2022-10-05T23:04:36.727Z,11.23
2022-10-05T23:07:03.659Z,11.16
2022-10-05T23:09:30.720Z,11.12
2022-10-05T23:11:57.510Z,11.11
2022-10-05T23:14:24.619Z,11.17
2022-10-05T23:16:51.376Z,11.13
2022-10-05T23:19:18.314Z,11.02
2022-10-05T23:21:45.259Z,11.04
2022-10-05T23:24:11.985Z,10.99
2022-10-05T23:26:38.737Z,10.98
2022-10-05T23:29:05.719Z,11.00
2022-10-05T23:31:32.589Z,10.94
2022-10-05T23:33:59.359Z,10.98
2022-10-05T23:36:28.805Z,10.92
2022-10-05T23:38:56.150Z,10.93
2022-10-05T23:41:22.857Z,10.87
2022-10-05T23:43:50.119Z,10.87
2022-10-05T23:46:17.799Z,10.94
2022-10-05T23:48:44.605Z,10.94
2022-10-05T23:51:13.684Z,10.92
2022-10-05T23:53:40.544Z,10.86
2022-10-05T23:56:07.589Z,10.90
2022-10-05T23:58:34.406Z,10.84
